createdAt,value
2019-03-20T00:01:20.816Z,4.47
2019-03-20T00:03:50.212Z,3.80
2019-03-20T00:06:19.633Z,4.10
2019-03-20T00:08:48.817Z,3.90
2019-03-20T00:11:17.952Z,4.17
2019-03-20T00:13:47.136Z,3.60
2019-03-20T00:16:16.288Z,3.83
2019-03-20T00:18:45.632Z,3.77
2019-03-20T00:21:15.154Z,4.10
2019-03-20T00:23:44.397Z,4.30
2019-03-20T00:26:13.549Z,3.60
2019-03-20T00:28:42.719Z,3.50
2019-03-20T00:31:11.858Z,3.80
2019-03-20T00:33:41.067Z,3.77
2019-03-20T00:36:10.527Z,3.80
2019-03-20T00:38:40.072Z,3.77
2019-03-20T00:41:09.619Z,3.67
2019-03-20T00:43:38.854Z,3.50
2019-03-20T00:46:08.043Z,3.80
2019-03-20T00:48:37.184Z,3.47
2019-03-20T00:51:06.348Z,3.60
2019-03-20T00:53:35.611Z,3.30
2019-03-20T00:56:04.843Z,3.90
2019-03-20T00:58:33.980Z,3.73
2019-03-20T01:01:03.160Z,3.77
2019-03-20T01:03:32.462Z,3.80
2019-03-20T01:06:01.638Z,3.23
2019-03-20T01:08:30.907Z,2.80
2019-03-20T01:11:00.109Z,3.70
2019-03-20T01:13:29.661Z,3.30
2019-03-20T01:15:58.837Z,3.40
2019-03-20T01:18:28.061Z,3.53
2019-03-20T01:20:57.376Z,3.93
2019-03-20T01:23:26.941Z,3.93
2019-03-20T01:25:56.452Z,4.30
2019-03-20T01:28:25.925Z,3.60
2019-03-20T01:30:55.136Z,3.80
2019-03-20T01:33:24.619Z,3.50
2019-03-20T01:35:53.829Z,3.70
2019-03-20T01:38:22.992Z,3.37
2019-03-20T01:40:52.172Z,3.70
2019-03-20T01:43:21.324Z,3.63
2019-03-20T01:45:50.811Z,3.50
2019-03-20T01:48:19.984Z,3.87
2019-03-20T01:50:49.160Z,3.70
2019-03-20T01:53:18.487Z,4.23
2019-03-20T01:55:47.908Z,3.57
2019-03-20T01:58:17.113Z,3.97
2019-03-20T02:00:46.320Z,3.90
2019-03-20T02:03:15.710Z,4.10
2019-03-20T02:05:45.189Z,4.00
2019-03-20T02:08:14.669Z,3.90
2019-03-20T02:10:43.813Z,3.90
2019-03-20T02:13:12.971Z,3.40
2019-03-20T02:15:42.180Z,3.80
2019-03-20T02:18:11.349Z,3.40
2019-03-20T02:20:40.485Z,3.57
2019-03-20T02:23:09.875Z,3.40
2019-03-20T02:25:39.061Z,3.23
2019-03-20T02:28:08.172Z,3.30
2019-03-20T02:30:37.810Z,3.87
2019-03-20T02:33:07.229Z,3.60
2019-03-20T02:35:50.676Z,4.27
2019-03-20T02:38:07.625Z,3.70
2019-03-20T02:40:36.809Z,3.50
2019-03-20T02:43:06.316Z,3.67
2019-03-20T02:45:35.923Z,3.70
2019-03-20T02:48:05.303Z,3.70
2019-03-20T02:50:34.468Z,3.30
2019-03-20T02:53:03.602Z,3.53
2019-03-20T02:55:32.998Z,3.43
2019-03-20T02:58:02.147Z,3.10
2019-03-20T03:00:31.302Z,3.50
2019-03-20T03:03:00.726Z,3.20
2019-03-20T03:05:30.078Z,3.57
2019-03-20T03:07:59.246Z,3.67
2019-03-20T03:10:47.521Z,3.40
2019-03-20T03:13:16.686Z,4.03
2019-03-20T03:15:45.879Z,3.60
2019-03-20T03:18:15.112Z,3.50
2019-03-20T03:20:44.260Z,3.23
2019-03-20T03:23:13.582Z,3.33
2019-03-20T03:25:42.753Z,3.23
2019-03-20T03:28:11.929Z,3.27
2019-03-20T03:30:41.458Z,3.40
2019-03-20T03:33:10.750Z,3.07
2019-03-20T03:35:39.933Z,3.10
2019-03-20T03:38:09.078Z,3.13
2019-03-20T03:40:38.489Z,3.40
2019-03-20T03:43:07.664Z,3.40
2019-03-20T03:45:36.902Z,3.47
2019-03-20T03:48:06.055Z,3.47
2019-03-20T03:50:35.247Z,3.27
2019-03-20T03:53:04.421Z,2.93
2019-03-20T03:55:33.750Z,3.20
2019-03-20T03:58:02.905Z,3.20
2019-03-20T04:00:32.146Z,3.30
2019-03-20T04:03:01.430Z,3.70
2019-03-20T04:05:31.006Z,3.30
2019-03-20T04:08:00.553Z,3.10
2019-03-20T04:10:29.699Z,3.73
2019-03-20T04:12:58.872Z,3.50
2019-03-20T04:15:28.174Z,3.70
2019-03-20T04:17:57.483Z,3.30
2019-03-20T04:20:26.616Z,3.30
2019-03-20T04:22:55.786Z,3.43
2019-03-20T04:25:24.932Z,3.83
2019-03-20T04:27:54.086Z,4.30
2019-03-20T04:30:23.322Z,4.10
2019-03-20T04:32:54.497Z,3.77
2019-03-20T04:35:23.636Z,4.20
2019-03-20T04:37:52.825Z,3.77
2019-03-20T04:40:21.967Z,3.63
2019-03-20T04:42:51.248Z,3.87
2019-03-20T04:45:20.404Z,3.57
2019-03-20T04:47:49.560Z,3.47
2019-03-20T04:50:18.891Z,3.63
2019-03-20T04:52:48.061Z,15.50
2019-03-20T04:55:17.241Z,15.83
2019-03-20T04:57:46.573Z,4.60
2019-03-20T05:00:16.170Z,3.80
2019-03-20T05:02:45.680Z,3.57
2019-03-20T05:05:15.293Z,3.50
2019-03-20T05:07:44.724Z,3.83
2019-03-20T05:10:14.403Z,4.10
2019-03-20T05:12:43.896Z,3.53
2019-03-20T05:15:13.080Z,4.00
2019-03-20T05:17:42.467Z,8.50
2019-03-20T05:20:12.745Z,27.23
2019-03-20T05:22:42.157Z,6.80
2019-03-20T05:25:11.705Z,5.40
2019-03-20T05:27:41.213Z,5.93
2019-03-20T05:30:11.651Z,9.43
2019-03-20T05:32:40.961Z,4.40
2019-03-20T05:35:10.660Z,4.10
2019-03-20T05:37:39.802Z,3.53
2019-03-20T05:40:10.468Z,3.40
2019-03-20T05:42:39.626Z,4.00
2019-03-20T05:45:10.102Z,3.87
2019-03-20T05:47:39.319Z,4.37
2019-03-20T05:50:09.405Z,4.07
2019-03-20T05:52:38.594Z,12.13
2019-03-20T05:55:08.174Z,27.17
2019-03-20T05:57:37.780Z,10.00
2019-03-20T06:00:07.685Z,6.10
2019-03-20T06:02:36.869Z,4.53
2019-03-20T06:05:07.224Z,4.80
2019-03-20T06:07:36.393Z,4.80
2019-03-20T06:10:07.149Z,13.90
2019-03-20T06:12:36.397Z,28.47
2019-03-20T06:15:06.309Z,10.10
2019-03-20T06:17:35.565Z,6.90
2019-03-20T06:20:05.501Z,6.37
2019-03-20T06:22:34.676Z,4.97
2019-03-20T06:25:04.386Z,4.93
2019-03-20T06:27:33.551Z,3.93
2019-03-20T06:30:02.743Z,4.70
2019-03-20T06:32:32.146Z,4.40
2019-03-20T06:35:01.307Z,4.70
2019-03-20T06:37:32.729Z,5.20
2019-03-20T06:40:01.883Z,5.17
2019-03-20T06:42:31.248Z,5.63
2019-03-20T06:45:00.422Z,5.00
2019-03-20T06:47:29.603Z,5.70
2019-03-20T06:49:58.991Z,5.50
2019-03-20T06:52:28.161Z,5.70
2019-03-20T06:54:57.435Z,5.17
2019-03-20T06:57:26.605Z,6.50
2019-03-20T07:00:52.267Z,5.23
2019-03-20T07:03:36.029Z,5.27
2019-03-20T07:06:19.124Z,4.80
2019-03-20T07:08:52.220Z,5.70
2019-03-20T07:11:19.904Z,5.93
2019-03-20T07:13:50.645Z,5.10
2019-03-20T07:16:20.375Z,5.87
2019-03-20T07:18:49.932Z,5.60
2019-03-20T07:21:19.141Z,5.90
2019-03-20T07:23:48.428Z,6.03
2019-03-20T07:26:17.608Z,5.27
2019-03-20T07:28:47.129Z,6.40
2019-03-20T07:31:16.297Z,6.13
2019-03-20T07:33:45.513Z,6.07
2019-03-20T07:36:14.668Z,5.47
2019-03-20T07:38:43.829Z,5.67
2019-03-20T07:41:12.984Z,5.53
2019-03-20T07:43:42.312Z,5.80
2019-03-20T07:46:11.481Z,6.00
2019-03-20T07:48:40.832Z,5.93
2019-03-20T07:51:10.377Z,5.13
2019-03-20T07:53:39.514Z,5.10
2019-03-20T07:56:08.692Z,5.23
2019-03-20T07:58:37.857Z,5.20
2019-03-20T08:01:07.011Z,5.60
2019-03-20T08:03:36.265Z,5.20
2019-03-20T08:06:06.168Z,5.57
2019-03-20T08:08:35.348Z,5.07
2019-03-20T08:11:04.588Z,4.93
2019-03-20T08:13:33.844Z,4.93
2019-03-20T08:16:04.119Z,5.33
2019-03-20T08:18:33.440Z,5.20
2019-03-20T08:21:02.692Z,5.37
2019-03-20T08:23:31.853Z,5.00
2019-03-20T08:26:01.024Z,5.60
2019-03-20T08:28:30.236Z,5.57
2019-03-20T08:30:59.529Z,5.63
2019-03-20T08:33:28.689Z,5.10
2019-03-20T08:35:57.943Z,5.20
2019-03-20T08:38:27.192Z,5.50
2019-03-20T08:40:56.363Z,5.40
2019-03-20T08:43:25.529Z,6.10
2019-03-20T08:45:54.784Z,5.70
2019-03-20T08:48:23.974Z,5.60
2019-03-20T08:50:53.129Z,4.60
2019-03-20T08:53:22.478Z,5.03
2019-03-20T08:55:51.796Z,5.13
2019-03-20T08:58:21.188Z,5.70
2019-03-20T09:00:50.372Z,5.07
2019-03-20T09:03:19.976Z,4.90
2019-03-20T09:05:49.277Z,4.77
2019-03-20T09:08:28.541Z,4.73
2019-03-20T09:10:49.424Z,4.13
2019-03-20T09:13:18.799Z,4.20
2019-03-20T09:15:47.960Z,3.80
2019-03-20T09:18:17.168Z,4.70
2019-03-20T09:20:46.518Z,3.97
2019-03-20T09:23:15.720Z,3.80
2019-03-20T09:25:44.861Z,3.90
2019-03-20T09:28:14.148Z,3.87
2019-03-20T09:30:43.376Z,3.93
2019-03-20T09:33:12.568Z,4.20
2019-03-20T09:35:41.831Z,3.97
2019-03-20T09:38:11.024Z,2.60
2019-03-20T09:40:41.164Z,2.80
2019-03-20T09:43:10.438Z,2.60
2019-03-20T09:45:39.969Z,2.20
2019-03-20T09:48:09.509Z,2.20
2019-03-20T09:50:39.041Z,2.60
2019-03-20T09:53:08.187Z,2.30
2019-03-20T09:55:37.476Z,2.67
2019-03-20T09:58:11.643Z,1.90
2019-03-20T10:00:37.550Z,1.60
2019-03-20T10:03:06.705Z,1.57
2019-03-20T10:05:35.881Z,2.07
2019-03-20T10:08:05.236Z,1.60
2019-03-20T10:10:34.404Z,1.80
2019-03-20T10:13:05.496Z,1.70
2019-03-20T10:15:34.677Z,1.60
2019-03-20T10:18:04.109Z,1.40
2019-03-20T10:20:33.267Z,2.03
2019-03-20T10:23:02.534Z,1.73
2019-03-20T10:25:31.732Z,1.70
2019-03-20T10:28:01.168Z,1.73
2019-03-20T10:30:30.625Z,1.60
2019-03-20T10:32:59.789Z,1.77
2019-03-20T10:35:28.987Z,1.50
2019-03-20T10:37:58.173Z,1.40
2019-03-20T10:40:27.355Z,1.93
2019-03-20T10:42:56.525Z,1.90
2019-03-20T10:45:25.941Z,2.00
2019-03-20T10:47:55.380Z,1.90
2019-03-20T10:50:24.540Z,2.00
2019-03-20T10:52:53.785Z,1.70
2019-03-20T10:55:23.401Z,1.80
2019-03-20T10:57:52.600Z,1.50
2019-03-20T11:00:22.010Z,1.90
2019-03-20T11:02:51.636Z,2.10
2019-03-20T11:05:39.868Z,1.60
2019-03-20T11:08:09.197Z,1.60
2019-03-20T11:10:38.465Z,2.00
2019-03-20T11:13:07.727Z,2.10
2019-03-20T11:15:36.892Z,2.03
2019-03-20T11:18:06.538Z,1.60
2019-03-20T11:20:35.705Z,1.57
2019-03-20T11:23:04.976Z,4.37
2019-03-20T11:25:34.142Z,1.73
2019-03-20T11:28:03.341Z,2.20
2019-03-20T11:30:32.678Z,1.80
2019-03-20T11:33:01.945Z,1.75
2019-03-20T11:35:31.300Z,2.00
2019-03-20T11:38:00.472Z,1.25
2019-03-20T11:40:30.042Z,3.72
2019-03-20T11:42:59.552Z,2.22
2019-03-20T11:45:28.904Z,2.10
2019-03-20T11:47:58.158Z,2.00
2019-03-20T11:50:35.536Z,1.52
2019-03-20T11:53:05.252Z,1.67
2019-03-20T11:55:34.882Z,1.50
2019-03-20T11:58:04.738Z,1.72
2019-03-20T12:00:34.021Z,1.57
2019-03-20T12:03:03.279Z,1.70
2019-03-20T12:05:32.611Z,1.50
2019-03-20T12:08:01.798Z,1.40
2019-03-20T12:10:30.971Z,1.65
2019-03-20T12:13:00.241Z,5.62
2019-03-20T12:15:29.517Z,1.72
2019-03-20T12:17:58.808Z,1.47
2019-03-20T12:20:28.127Z,1.60
2019-03-20T12:22:57.739Z,1.30
2019-03-20T12:25:28.101Z,1.65
2019-03-20T12:27:58.027Z,1.52
2019-03-20T12:30:28.321Z,1.30
2019-03-20T12:32:57.589Z,1.85
2019-03-20T12:35:28.038Z,1.65
2019-03-20T12:37:57.297Z,1.50
2019-03-20T12:40:28.195Z,1.45
2019-03-20T12:42:57.853Z,1.12
2019-03-20T12:45:31.775Z,1.80
2019-03-20T12:48:01.109Z,1.62
2019-03-20T12:50:30.521Z,2.02
2019-03-20T12:53:01.852Z,2.80
2019-03-20T12:55:31.256Z,1.92
2019-03-20T12:58:00.859Z,1.85
2019-03-20T13:00:30.427Z,1.90
2019-03-20T13:02:59.791Z,1.80
2019-03-20T13:05:28.989Z,1.30
2019-03-20T13:08:05.693Z,1.70
2019-03-20T13:10:29.045Z,1.70
2019-03-20T13:12:58.406Z,1.50
2019-03-20T13:15:28.073Z,1.87
2019-03-20T13:17:57.609Z,2.30
2019-03-20T13:20:27.598Z,1.50
2019-03-20T13:23:00.010Z,1.60
2019-03-20T13:25:29.187Z,1.63
2019-03-20T13:27:58.352Z,1.90
2019-03-20T13:30:33.599Z,1.87
2019-03-20T13:33:02.848Z,1.77
2019-03-20T13:35:32.076Z,1.67
2019-03-20T13:38:01.401Z,1.70
2019-03-20T13:40:30.594Z,1.40
2019-03-20T13:42:59.832Z,1.60
2019-03-20T13:45:29.104Z,1.60
2019-03-20T13:47:58.637Z,1.50
2019-03-20T13:50:27.825Z,1.60
2019-03-20T13:52:57.043Z,1.73
2019-03-20T13:55:26.205Z,1.37
2019-03-20T13:57:55.531Z,1.60
2019-03-20T14:00:24.783Z,1.73
2019-03-20T14:02:53.996Z,1.70
2019-03-20T14:05:23.466Z,1.67
2019-03-20T14:07:52.728Z,1.70
2019-03-20T14:10:25.428Z,1.30
2019-03-20T14:12:53.389Z,3.40
2019-03-20T14:15:22.530Z,2.13
2019-03-20T14:17:51.853Z,2.13
2019-03-20T14:20:22.723Z,1.93
2019-03-20T14:22:52.018Z,1.57
2019-03-20T14:25:21.592Z,1.87
2019-03-20T14:27:50.743Z,1.67
2019-03-20T14:30:22.057Z,1.60
2019-03-20T14:32:51.248Z,1.23
2019-03-20T14:35:20.735Z,1.40
2019-03-20T14:37:49.902Z,1.70
2019-03-20T14:40:21.340Z,1.63
2019-03-20T14:42:50.515Z,1.50
2019-03-20T14:45:19.827Z,1.60
2019-03-20T14:47:48.966Z,1.47
2019-03-20T14:50:23.023Z,1.70
2019-03-20T14:52:52.939Z,1.70
2019-03-20T14:55:22.138Z,1.63
2019-03-20T14:57:51.573Z,1.67
2019-03-20T15:00:23.591Z,2.17
2019-03-20T15:02:52.864Z,1.60
2019-03-20T15:05:22.363Z,1.63
2019-03-20T15:07:51.575Z,1.73
2019-03-20T15:10:22.095Z,1.87
2019-03-20T15:12:54.026Z,1.97
2019-03-20T15:15:32.853Z,1.53
2019-03-20T15:18:02.025Z,1.20
2019-03-20T15:20:31.235Z,1.63
2019-03-20T15:23:00.464Z,2.20
2019-03-20T15:25:29.640Z,1.40
2019-03-20T15:27:58.795Z,1.60
2019-03-20T15:30:29.686Z,1.80
2019-03-20T15:32:59.176Z,1.77
2019-03-20T15:35:28.421Z,1.70
2019-03-20T15:37:57.665Z,1.83
2019-03-20T15:40:27.396Z,9.50
2019-03-20T15:42:56.567Z,2.03
2019-03-20T15:45:25.739Z,1.60
2019-03-20T15:47:54.914Z,1.63
2019-03-20T15:50:24.340Z,1.60
2019-03-20T15:52:53.575Z,1.60
2019-03-20T15:55:25.582Z,1.93
2019-03-20T15:57:55.155Z,2.50
2019-03-20T16:00:24.284Z,1.70
2019-03-20T16:02:55.599Z,1.50
2019-03-20T16:05:24.934Z,1.80
2019-03-20T16:07:54.305Z,1.53
2019-03-20T16:10:23.954Z,1.73
2019-03-20T16:12:53.489Z,1.80
2019-03-20T16:15:22.861Z,1.37
2019-03-20T16:17:52.250Z,1.70
2019-03-20T16:20:21.546Z,2.00
2019-03-20T16:22:50.704Z,2.00
2019-03-20T16:25:20.105Z,1.63
2019-03-20T16:27:49.330Z,1.83
2019-03-20T16:30:20.099Z,1.97
2019-03-20T16:32:49.281Z,2.47
2019-03-20T16:35:18.801Z,1.80
2019-03-20T16:37:48.080Z,1.60
2019-03-20T16:40:19.141Z,7.23
2019-03-20T16:42:48.684Z,2.97
2019-03-20T16:45:25.505Z,1.97
2019-03-20T16:47:55.056Z,2.47
2019-03-20T16:50:24.525Z,1.70
2019-03-20T16:52:54.109Z,2.20
2019-03-20T16:55:23.388Z,2.83
2019-03-20T16:57:52.535Z,2.10
2019-03-20T17:00:24.069Z,2.17
2019-03-20T17:02:53.672Z,2.13
2019-03-20T17:05:23.180Z,2.00
2019-03-20T17:07:52.341Z,1.80
2019-03-20T17:10:26.654Z,1.60
2019-03-20T17:12:55.846Z,1.50
2019-03-20T17:15:25.977Z,1.80
2019-03-20T17:17:55.167Z,2.00
2019-03-20T17:20:24.743Z,1.50
2019-03-20T17:22:54.068Z,2.33
2019-03-20T17:25:23.296Z,2.07
2019-03-20T17:27:52.451Z,1.70
2019-03-20T17:30:26.903Z,1.53
2019-03-20T17:32:56.329Z,2.00
2019-03-20T17:35:25.895Z,1.47
2019-03-20T17:37:55.042Z,1.73
2019-03-20T17:40:24.468Z,1.70
2019-03-20T17:42:53.744Z,2.10
2019-03-20T17:45:23.601Z,2.33
2019-03-20T17:47:52.797Z,2.40
2019-03-20T17:50:23.969Z,2.60
2019-03-20T17:52:53.180Z,1.87
2019-03-20T17:55:22.662Z,1.67
2019-03-20T17:57:52.006Z,1.77
2019-03-20T18:00:26.604Z,2.20
2019-03-20T18:02:55.781Z,1.70
2019-03-20T18:05:25.029Z,1.90
2019-03-20T18:07:54.361Z,2.00
2019-03-20T18:10:23.525Z,1.77
2019-03-20T18:12:52.797Z,1.87
2019-03-20T18:15:22.032Z,2.00
2019-03-20T18:17:51.279Z,1.80
2019-03-20T18:20:20.438Z,2.23
2019-03-20T18:22:49.681Z,2.00
2019-03-20T18:25:18.927Z,2.10
2019-03-20T18:27:48.329Z,2.10
2019-03-20T18:30:20.344Z,1.90
2019-03-20T18:32:49.570Z,2.43
2019-03-20T18:35:19.135Z,1.93
2019-03-20T18:37:48.562Z,2.27
2019-03-20T18:40:18.064Z,2.30
2019-03-20T18:42:47.391Z,2.00
2019-03-20T18:45:17.819Z,2.00
2019-03-20T18:47:47.168Z,2.03
2019-03-20T18:50:17.775Z,1.73
2019-03-20T18:52:46.933Z,1.70
2019-03-20T18:55:16.376Z,1.83
2019-03-20T18:57:45.727Z,2.40
2019-03-20T19:00:17.580Z,1.80
2019-03-20T19:02:46.720Z,1.80
2019-03-20T19:05:19.004Z,2.10
2019-03-20T19:08:07.544Z,1.63
2019-03-20T19:10:37.004Z,2.43
2019-03-20T19:13:06.202Z,2.00
2019-03-20T19:15:35.499Z,2.00
2019-03-20T19:18:04.905Z,1.80
2019-03-20T19:20:34.060Z,2.30
2019-03-20T19:23:03.299Z,2.23
2019-03-20T19:25:32.505Z,2.70
2019-03-20T19:28:01.686Z,1.70
2019-03-20T19:30:30.965Z,2.30
2019-03-20T19:33:00.143Z,2.20
2019-03-20T19:35:29.435Z,2.30
2019-03-20T19:37:58.600Z,10.57
2019-03-20T19:40:27.848Z,3.20
2019-03-20T19:42:57.352Z,4.53
2019-03-20T19:45:26.528Z,3.03
2019-03-20T19:47:55.768Z,2.10
2019-03-20T19:50:25.054Z,1.90
2019-03-20T19:52:54.359Z,2.00
2019-03-20T19:55:24.341Z,2.20
2019-03-20T19:57:53.718Z,1.93
2019-03-20T20:00:22.993Z,1.90
2019-03-20T20:02:52.207Z,2.90
2019-03-20T20:05:21.523Z,5.87
2019-03-20T20:07:50.869Z,2.77
2019-03-20T20:10:20.305Z,2.10
2019-03-20T20:12:49.833Z,2.30
2019-03-20T20:15:20.720Z,2.13
2019-03-20T20:17:49.953Z,1.87
2019-03-20T20:20:20.068Z,2.57
2019-03-20T20:22:49.400Z,2.50
2019-03-20T20:25:18.619Z,2.40
2019-03-20T20:27:47.775Z,2.53
2019-03-20T20:30:17.764Z,2.60
2019-03-20T20:32:47.134Z,2.20
2019-03-20T20:35:16.534Z,2.70
2019-03-20T20:37:45.770Z,2.77
2019-03-20T20:40:16.330Z,2.67
2019-03-20T20:42:45.688Z,3.37
2019-03-20T20:45:14.940Z,2.30
2019-03-20T20:47:44.293Z,4.93
2019-03-20T20:50:13.877Z,6.10
2019-03-20T20:52:43.060Z,4.30
2019-03-20T20:55:12.940Z,3.47
2019-03-20T20:57:42.312Z,3.50
2019-03-20T21:00:16.944Z,3.43
2019-03-20T21:02:46.263Z,2.83
2019-03-20T21:05:15.505Z,3.00
2019-03-20T21:07:44.689Z,3.33
2019-03-20T21:10:15.146Z,3.03
2019-03-20T21:12:55.531Z,2.67
2019-03-20T21:15:36.053Z,5.00
2019-03-20T21:18:42.036Z,2.57
2019-03-20T21:21:11.819Z,2.63
2019-03-20T21:24:17.109Z,2.67
2019-03-20T21:27:27.329Z,3.30
2019-03-20T21:30:43.667Z,3.30
2019-03-20T21:33:23.393Z,3.00
2019-03-20T21:36:41.668Z,3.03
2019-03-20T21:39:11.434Z,3.50
2019-03-20T21:42:16.880Z,3.60
2019-03-20T21:45:14.545Z,3.47
2019-03-20T21:47:44.284Z,3.10
2019-03-20T21:50:49.199Z,3.03
2019-03-20T21:53:23.448Z,2.90
2019-03-20T21:56:28.544Z,3.80
2019-03-20T21:59:21.057Z,3.70
2019-03-20T22:02:39.397Z,3.73
2019-03-20T22:05:22.682Z,3.90
2019-03-20T22:07:43.865Z,4.07
2019-03-20T22:10:59.836Z,4.77
2019-03-20T22:13:39.552Z,4.40
2019-03-20T22:16:51.674Z,4.37
2019-03-20T22:19:30.276Z,3.60
2019-03-20T22:22:39.586Z,3.20
2019-03-20T22:25:48.206Z,3.43
2019-03-20T22:29:10.894Z,2.80
2019-03-20T22:31:43.835Z,3.00
2019-03-20T22:34:36.467Z,3.23
2019-03-20T22:37:06.255Z,3.00
2019-03-20T22:40:11.549Z,3.17
2019-03-20T22:43:00.832Z,3.30
2019-03-20T22:46:26.250Z,3.37
2019-03-20T22:49:36.756Z,4.10
2019-03-20T22:52:35.605Z,3.10
2019-03-20T22:55:38.834Z,3.00
2019-03-20T22:58:46.612Z,3.77
2019-03-20T23:01:23.876Z,4.30
2019-03-20T23:03:58.584Z,3.83
2019-03-20T23:06:28.367Z,3.63
2019-03-20T23:08:58.057Z,4.00
2019-03-20T23:11:27.796Z,3.90
2019-03-20T23:13:57.535Z,4.00
2019-03-20T23:16:27.377Z,3.70
2019-03-20T23:18:57.448Z,4.00
2019-03-20T23:21:27.151Z,3.20
2019-03-20T23:23:56.926Z,4.17
2019-03-20T23:26:26.612Z,4.50
2019-03-20T23:28:56.320Z,3.57
2019-03-20T23:31:26.352Z,3.97
2019-03-20T23:33:56.405Z,3.37
2019-03-20T23:36:26.959Z,4.30
2019-03-20T23:38:56.852Z,4.23
2019-03-20T23:41:26.624Z,4.50
2019-03-20T23:43:56.301Z,4.30
2019-03-20T23:46:25.993Z,3.97
2019-03-20T23:49:05.613Z,3.87
2019-03-20T23:51:35.476Z,4.20
2019-03-20T23:54:05.204Z,4.67
2019-03-20T23:56:35.928Z,4.00
2019-03-20T23:59:06.264Z,3.97
